Time;durP1;ratioP1;P1;durP2;ratioP2;P2;SDS_P1;SDS_P2;PMS_P1;PMS_P2;Temp;Humidity;BMP_temperature;BMP_pressure;BME280_temperature;BME280_humidity;BME280_pressure;Samples;Min_cycle;Max_cycle;Signal;HPM_P1;HPM_P2
2023/04/22 00:01:42;;;;;;;14.80;5.30;;;15.60;99.90;;;;;;5112515;28;20051;-75
2023/04/22 00:04:08;;;;;;;19.42;6.18;;;15.70;99.90;;;;;;5112335;28;20062;-76
2023/04/22 00:06:34;;;;;;;18.20;6.05;;;15.70;99.90;;;;;;5112591;28;20035;-76
2023/04/22 00:09:00;;;;;;;20.45;6.43;;;15.70;99.90;;;;;;5112716;28;20461;-76
2023/04/22 00:11:26;;;;;;;16.50;5.60;;;15.60;99.90;;;;;;5112017;28;20122;-76
2023/04/22 00:13:52;;;;;;;20.38;5.97;;;15.60;99.90;;;;;;5112880;28;20019;-76
2023/04/22 00:16:18;;;;;;;18.65;6.20;;;15.60;99.90;;;;;;5112165;28;20555;-76
2023/04/22 00:18:43;;;;;;;22.60;6.55;;;15.60;99.90;;;;;;5112371;28;20049;-76
2023/04/22 00:21:09;;;;;;;19.17;6.55;;;15.60;99.90;;;;;;5112839;28;20118;-76
2023/04/22 00:23:35;;;;;;;23.30;6.97;;;15.50;99.90;;;;;;5112115;28;20028;-75
2023/04/22 00:26:01;;;;;;;22.20;7.50;;;15.50;99.90;;;;;;5112558;28;20061;-75
2023/04/22 00:28:27;;;;;;;21.60;8.02;;;15.30;99.90;;;;;;5112447;28;20060;-76
2023/04/22 00:30:52;;;;;;;19.40;6.50;;;15.30;99.90;;;;;;5111522;28;20034;-76
2023/04/22 00:33:18;;;;;;;19.95;6.30;;;15.30;99.90;;;;;;5111905;28;20161;-75
2023/04/22 00:35:46;;;;;;;18.83;6.30;;;15.30;99.90;;;;;;5112063;28;20057;-76
2023/04/22 00:38:12;;;;;;;18.25;6.00;;;15.20;99.90;;;;;;5112449;28;20034;-76
2023/04/22 00:40:38;;;;;;;19.63;6.10;;;15.10;99.90;;;;;;5112049;28;20023;-76
2023/04/22 00:43:04;;;;;;;19.23;6.63;;;15.20;99.90;;;;;;5111891;28;20027;-76
2023/04/22 00:45:30;;;;;;;17.10;6.88;;;15.10;99.90;;;;;;5111760;28;20027;-77
2023/04/22 00:47:56;;;;;;;19.52;6.57;;;15.10;99.90;;;;;;5112131;28;20044;-76
2023/04/22 00:50:22;;;;;;;17.70;6.10;;;15.10;99.90;;;;;;5111574;28;20024;-76
2023/04/22 00:52:48;;;;;;;17.05;6.40;;;15.10;99.90;;;;;;5112297;28;20108;-77
2023/04/22 00:55:14;;;;;;;20.08;6.45;;;15.00;99.90;;;;;;5111937;28;20024;-75
2023/04/22 00:57:40;;;;;;;19.77;6.25;;;15.10;99.90;;;;;;5111605;28;20103;-75
2023/04/22 01:00:08;;;;;;;16.58;5.95;;;15.10;99.90;;;;;;5111634;28;20082;-75
2023/04/22 01:02:36;;;;;;;20.98;6.22;;;15.10;99.90;;;;;;5111792;28;20120;-75
2023/04/22 01:05:02;;;;;;;24.58;6.95;;;14.90;99.90;;;;;;5111557;28;20103;-75
2023/04/22 01:07:28;;;;;;;18.85;6.80;;;14.90;99.90;;;;;;5111161;28;20051;-75
2023/04/22 01:09:54;;;;;;;15.65;6.00;;;14.80;99.90;;;;;;5094037;28;20024;-75
2023/04/22 01:12:20;;;;;;;18.02;6.30;;;14.90;99.90;;;;;;5111368;28;20079;-75
2023/04/22 01:14:45;;;;;;;19.95;7.32;;;14.90;99.90;;;;;;5111231;28;20019;-75
2023/04/22 01:17:13;;;;;;;22.10;6.63;;;14.80;99.90;;;;;;5111738;28;20035;-75
2023/04/22 01:19:40;;;;;;;20.98;6.40;;;14.80;99.90;;;;;;5111493;28;20484;-75
2023/04/22 01:22:07;;;;;;;17.30;6.05;;;14.80;99.90;;;;;;5093399;28;20035;-75
2023/04/22 01:24:33;;;;;;;17.15;5.85;;;14.80;99.90;;;;;;5113160;28;20080;-75
2023/04/22 01:26:59;;;;;;;22.08;6.90;;;14.70;99.90;;;;;;5097288;28;20157;-76
2023/04/22 01:29:25;;;;;;;22.33;6.68;;;14.70;99.90;;;;;;5115690;28;20505;-76
2023/04/22 01:31:52;;;;;;;17.40;5.72;;;14.60;99.90;;;;;;5115946;28;20354;-75
2023/04/22 01:34:17;;;;;;;20.05;6.13;;;14.60;99.90;;;;;;5115360;28;20027;-75
2023/04/22 01:36:43;;;;;;;20.60;6.38;;;14.60;99.90;;;;;;5115374;28;20032;-75
2023/04/22 01:39:09;;;;;;;25.80;7.25;;;14.60;99.90;;;;;;5097184;28;20028;-76
2023/04/22 01:41:35;;;;;;;25.33;7.13;;;14.50;99.90;;;;;;5115599;28;20034;-76
2023/04/22 01:44:02;;;;;;;18.70;6.40;;;14.50;99.90;;;;;;5114777;28;20498;-76
2023/04/22 01:46:28;;;;;;;20.58;6.68;;;14.60;99.90;;;;;;5115561;28;20024;-76
2023/04/22 01:48:54;;;;;;;18.83;6.60;;;14.60;99.90;;;;;;5115332;28;20118;-76
2023/04/22 01:51:19;;;;;;;18.88;6.10;;;14.50;99.90;;;;;;5115456;28;20019;-76
2023/04/22 01:53:47;;;;;;;18.38;6.63;;;14.40;99.90;;;;;;5115247;28;20023;-76
2023/04/22 01:56:12;;;;;;;22.45;6.78;;;14.50;99.90;;;;;;5114840;28;20020;-77
2023/04/22 01:58:39;;;;;;;20.73;6.63;;;14.50;99.90;;;;;;5114845;28;20089;-76
2023/04/22 02:01:05;;;;;;;17.95;6.30;;;14.50;99.90;;;;;;5115420;28;20024;-76
2023/04/22 02:03:31;;;;;;;18.52;7.15;;;14.50;99.90;;;;;;5114693;28;20452;-76
2023/04/22 02:05:57;;;;;;;21.80;7.22;;;14.40;99.90;;;;;;5114690;28;20444;-76
2023/04/22 02:08:23;;;;;;;21.80;7.13;;;14.30;99.90;;;;;;5114380;28;20134;-76
2023/04/22 02:10:49;;;;;;;23.70;6.88;;;14.30;99.90;;;;;;5114417;28;20027;-76
2023/04/22 02:13:14;;;;;;;21.52;7.15;;;14.40;99.90;;;;;;5114293;28;20099;-76
2023/04/22 02:15:40;;;;;;;22.55;7.40;;;14.40;99.90;;;;;;5114741;28;20030;-77
2023/04/22 02:18:07;;;;;;;18.90;6.45;;;14.40;99.90;;;;;;5114798;28;20112;-76
2023/04/22 02:20:32;;;;;;;23.02;7.30;;;14.40;99.90;;;;;;5114824;28;20384;-76
2023/04/22 02:22:59;;;;;;;22.55;6.78;;;14.40;99.90;;;;;;5114623;28;20051;-76
2023/04/22 02:25:25;;;;;;;19.77;6.88;;;14.40;99.90;;;;;;5114832;28;20031;-76
2023/04/22 02:27:51;;;;;;;17.73;6.60;;;14.30;99.90;;;;;;5114833;28;20416;-76
2023/04/22 02:30:17;;;;;;;20.75;6.82;;;14.30;99.90;;;;;;5114592;28;20020;-76
2023/04/22 02:32:43;;;;;;;20.23;6.85;;;14.40;99.90;;;;;;5114698;28;20070;-76
2023/04/22 02:35:10;;;;;;;21.38;6.57;;;14.40;99.90;;;;;;5113583;28;20033;-76
2023/04/22 02:37:36;;;;;;;27.20;6.97;;;14.40;99.90;;;;;;5114202;28;20070;-76
2023/04/22 02:40:02;;;;;;;24.38;6.90;;;14.40;99.90;;;;;;5114014;28;20057;-76
2023/04/22 02:42:28;;;;;;;21.65;6.53;;;14.40;99.90;;;;;;5113813;28;20027;-76
2023/04/22 02:44:53;;;;;;;21.67;6.85;;;14.30;99.90;;;;;;5114307;28;20496;-77
2023/04/22 02:47:20;;;;;;;19.45;6.55;;;14.30;99.90;;;;;;5113919;28;20046;-77
2023/04/22 02:49:46;;;;;;;21.33;6.55;;;14.40;99.90;;;;;;5113783;28;20051;-77
2023/04/22 02:52:12;;;;;;;22.38;6.30;;;14.40;99.90;;;;;;5114545;28;20032;-77
2023/04/22 02:54:37;;;;;;;21.35;6.68;;;14.50;99.90;;;;;;5114304;28;20102;-76
2023/04/22 02:57:03;;;;;;;17.05;6.53;;;14.50;99.90;;;;;;5113549;28;20031;-77
2023/04/22 02:59:30;;;;;;;17.90;6.53;;;14.50;99.90;;;;;;5113664;28;20022;-77
2023/04/22 03:01:55;;;;;;;20.35;6.32;;;14.40;99.90;;;;;;5114156;28;20038;-77
2023/04/22 03:04:21;;;;;;;17.00;6.50;;;14.40;99.90;;;;;;5114052;28;20429;-76
2023/04/22 03:06:50;;;;;;;17.17;6.75;;;14.50;99.90;;;;;;5114190;28;20512;-74
2023/04/22 03:09:16;;;;;;;20.73;6.60;;;14.50;99.90;;;;;;5095485;28;20027;-75
2023/04/22 03:11:42;;;;;;;18.20;6.75;;;14.50;99.90;;;;;;5113573;28;20092;-74
2023/04/22 03:14:07;;;;;;;19.65;6.30;;;14.40;99.90;;;;;;5113993;28;20039;-76
2023/04/22 03:16:33;;;;;;;16.02;6.15;;;14.40;99.90;;;;;;5113605;28;20031;-76
2023/04/22 03:18:59;;;;;;;16.67;5.95;;;14.40;99.90;;;;;;5113814;28;20031;-76
2023/04/22 03:21:25;;;;;;;16.55;6.57;;;14.30;99.90;;;;;;5113919;28;20043;-76
2023/04/22 03:23:51;;;;;;;15.85;6.72;;;14.30;99.90;;;;;;5113140;28;20507;-76
2023/04/22 03:26:16;;;;;;;18.52;6.65;;;14.30;99.90;;;;;;5112803;28;20019;-77
2023/04/22 03:28:42;;;;;;;17.20;6.43;;;14.20;99.90;;;;;;5113815;28;20031;-76
2023/04/22 03:31:08;;;;;;;16.60;6.72;;;14.20;99.90;;;;;;5114240;28;20708;-77
2023/04/22 03:33:33;;;;;;;18.15;6.53;;;14.20;99.90;;;;;;5113434;28;20059;-77
2023/04/22 03:35:59;;;;;;;17.05;6.88;;;14.20;99.90;;;;;;5113842;28;20016;-76
2023/04/22 03:38:25;;;;;;;17.40;6.40;;;14.20;99.90;;;;;;5113926;28;20087;-77
2023/04/22 03:40:50;;;;;;;19.27;6.95;;;14.10;99.90;;;;;;5112902;28;20084;-77
2023/04/22 03:43:16;;;;;;;19.05;6.13;;;14.20;99.90;;;;;;5113162;28;20091;-77
2023/04/22 03:45:41;;;;;;;14.63;6.00;;;14.10;99.90;;;;;;5113470;28;20028;-78
2023/04/22 03:48:07;;;;;;;11.52;5.25;;;14.10;99.90;;;;;;5111976;28;20179;-78
2023/04/22 03:50:33;;;;;;;12.75;5.30;;;14.00;99.90;;;;;;5113215;28;20490;-78
2023/04/22 03:52:58;;;;;;;15.90;5.30;;;14.00;99.90;;;;;;5112847;28;20041;-78
2023/04/22 03:55:24;;;;;;;18.20;5.90;;;13.80;99.90;;;;;;5112903;28;20028;-77
2023/04/22 03:57:50;;;;;;;14.10;5.22;;;13.80;99.90;;;;;;5113231;28;20087;-77
2023/04/22 04:00:15;;;;;;;13.52;5.00;;;13.80;99.90;;;;;;5112659;28;20035;-79
2023/04/22 04:02:41;;;;;;;12.43;5.35;;;13.80;99.90;;;;;;5112553;28;20456;-78
2023/04/22 04:05:08;;;;;;;10.60;4.60;;;13.80;99.90;;;;;;5112734;28;20023;-79
2023/04/22 04:07:33;;;;;;;12.65;5.50;;;13.70;99.90;;;;;;5112690;28;20496;-79
2023/04/22 04:09:59;;;;;;;12.35;5.15;;;13.70;99.90;;;;;;5112689;28;20027;-79
2023/04/22 04:12:25;;;;;;;14.57;5.00;;;13.70;99.90;;;;;;5112130;28;20047;-78
2023/04/22 04:14:50;;;;;;;9.55;4.75;;;13.70;99.90;;;;;;5113346;28;20033;-77
2023/04/22 04:17:16;;;;;;;11.93;4.53;;;13.60;99.90;;;;;;5112780;28;20015;-78
2023/04/22 04:19:42;;;;;;;14.70;5.82;;;13.60;99.90;;;;;;5112782;28;20148;-78
2023/04/22 04:22:08;;;;;;;13.07;5.00;;;13.70;99.90;;;;;;5112269;28;20110;-77
2023/04/22 04:24:35;;;;;;;13.40;5.10;;;13.70;99.90;;;;;;5112157;28;20038;-79
2023/04/22 04:27:01;;;;;;;13.05;5.20;;;13.60;99.90;;;;;;5112051;28;20042;-80
2023/04/22 04:29:27;;;;;;;12.25;5.18;;;13.50;99.90;;;;;;5112594;28;20032;-80
2023/04/22 04:31:53;;;;;;;8.77;4.80;;;13.50;99.90;;;;;;5112535;28;20031;-81
2023/04/22 04:34:19;;;;;;;9.32;4.78;;;13.60;99.90;;;;;;5112973;28;20023;-82
2023/04/22 04:36:45;;;;;;;12.00;5.05;;;13.50;99.90;;;;;;5112656;28;20512;-82
2023/04/22 04:39:11;;;;;;;10.57;4.60;;;13.30;99.90;;;;;;5111906;28;20443;-82
2023/04/22 04:41:37;;;;;;;11.30;4.90;;;13.40;99.90;;;;;;5112174;28;20067;-82
2023/04/22 04:44:03;;;;;;;8.48;4.95;;;13.40;99.90;;;;;;5112683;28;20051;-82
2023/04/22 04:46:29;;;;;;;13.88;5.47;;;13.30;99.90;;;;;;5111814;28;20054;-81
2023/04/22 04:48:56;;;;;;;11.23;5.47;;;13.40;99.90;;;;;;5113943;28;20042;-79
2023/04/22 04:51:22;;;;;;;13.82;5.60;;;13.40;99.90;;;;;;5111942;28;20099;-79
2023/04/22 04:53:47;;;;;;;13.65;5.50;;;13.40;99.90;;;;;;5112430;28;20122;-79
2023/04/22 04:56:13;;;;;;;12.82;5.90;;;13.30;99.90;;;;;;5111870;28;20023;-79
2023/04/22 04:58:38;;;;;;;12.50;5.35;;;13.30;99.90;;;;;;5093145;28;20058;-78
2023/04/22 05:01:05;;;;;;;14.48;5.57;;;13.30;99.90;;;;;;5112044;28;20449;-79
2023/04/22 05:03:31;;;;;;;12.70;5.35;;;13.30;99.90;;;;;;5111825;28;20169;-79
2023/04/22 05:05:56;;;;;;;10.77;4.85;;;13.00;99.90;;;;;;5111719;28;20516;-79
2023/04/22 05:08:22;;;;;;;12.07;5.20;;;13.20;99.90;;;;;;5111601;28;20412;-78
2023/04/22 05:10:48;;;;;;;10.18;4.97;;;13.20;99.90;;;;;;5111561;28;20031;-81
2023/04/22 05:13:13;;;;;;;10.10;4.68;;;13.20;99.90;;;;;;5112168;28;20496;-80
2023/04/22 05:15:39;;;;;;;10.13;5.07;;;13.10;99.90;;;;;;5111521;28;20057;-78
2023/04/22 05:18:05;;;;;;;9.43;5.00;;;13.20;99.90;;;;;;5112007;28;20076;-77
2023/04/22 05:20:31;;;;;;;11.55;5.15;;;13.10;99.90;;;;;;5111270;28;20118;-77
2023/04/22 05:22:56;;;;;;;12.35;5.55;;;13.10;99.90;;;;;;5111401;28;20106;-77
2023/04/22 05:25:22;;;;;;;11.70;5.50;;;13.10;99.90;;;;;;5093432;28;20400;-77
2023/04/22 05:27:48;;;;;;;13.65;5.82;;;13.00;99.90;;;;;;5111266;28;20118;-76
2023/04/22 05:30:13;;;;;;;11.60;5.93;;;13.00;99.90;;;;;;5112407;28;20437;-76
2023/04/22 05:32:39;;;;;;;11.70;5.57;;;13.00;99.90;;;;;;5112629;28;20024;-76
2023/04/22 05:35:05;;;;;;;10.50;5.65;;;13.00;99.90;;;;;;5111146;28;20026;-76
2023/04/22 05:37:31;;;;;;;12.65;5.45;;;12.90;99.90;;;;;;5111789;28;20032;-78
2023/04/22 05:39:56;;;;;;;9.48;5.55;;;12.80;99.90;;;;;;5111330;28;20034;-76
2023/04/22 05:42:22;;;;;;;11.68;5.93;;;12.90;99.90;;;;;;5111122;28;20118;-76
2023/04/22 05:44:48;;;;;;;9.90;5.60;;;12.90;99.90;;;;;;5111697;28;20031;-77
2023/04/22 05:47:13;;;;;;;9.77;5.40;;;12.90;99.90;;;;;;5111342;28;20490;-77
2023/04/22 05:49:39;;;;;;;8.07;5.70;;;12.90;99.90;;;;;;5110955;28;20456;-79
2023/04/22 05:52:05;;;;;;;11.43;5.88;;;12.90;99.90;;;;;;5111036;28;20403;-76
2023/04/22 05:54:30;;;;;;;9.75;5.63;;;12.80;99.90;;;;;;5111089;28;20038;-75
2023/04/22 05:56:57;;;;;;;11.13;6.07;;;12.80;99.90;;;;;;5111612;27;20034;-75
2023/04/22 05:59:23;;;;;;;11.45;6.28;;;12.90;99.90;;;;;;5111158;28;20038;-74
2023/04/22 06:01:48;;;;;;;11.73;6.30;;;12.80;99.90;;;;;;5111531;28;20031;-74
2023/04/22 06:04:14;;;;;;;10.65;5.78;;;12.90;99.90;;;;;;5110716;28;20023;-75
2023/04/22 06:06:40;;;;;;;12.68;5.97;;;12.90;99.90;;;;;;5110990;28;20445;-74
2023/04/22 06:09:06;;;;;;;10.23;5.93;;;12.70;99.90;;;;;;5111039;28;20027;-74
2023/04/22 06:11:32;;;;;;;10.98;6.63;;;12.90;99.90;;;;;;5114648;28;20044;-74
2023/04/22 06:13:58;;;;;;;11.70;6.18;;;12.80;99.90;;;;;;5114821;28;20043;-74
2023/04/22 06:16:24;;;;;;;9.68;6.30;;;12.90;99.90;;;;;;5114601;28;20024;-74
2023/04/22 06:18:49;;;;;;;9.82;5.72;;;12.90;99.90;;;;;;5114510;28;20027;-74
2023/04/22 06:21:15;;;;;;;10.25;6.38;;;13.00;99.90;;;;;;5114647;28;20050;-74
2023/04/22 06:23:41;;;;;;;9.35;6.18;;;13.00;99.90;;;;;;5114663;28;20039;-73
2023/04/22 06:26:07;;;;;;;9.90;5.82;;;13.10;99.90;;;;;;5114931;28;20020;-74
2023/04/22 06:28:33;;;;;;;13.20;6.22;;;13.10;99.90;;;;;;5115841;28;20035;-74
2023/04/22 06:30:58;;;;;;;11.63;6.32;;;13.10;99.90;;;;;;5117393;28;20047;-75
2023/04/22 06:33:24;;;;;;;9.15;6.47;;;13.10;99.90;;;;;;5114882;28;20069;-74
2023/04/22 06:35:50;;;;;;;9.00;5.95;;;13.10;99.90;;;;;;5115900;28;20039;-74
2023/04/22 06:38:16;;;;;;;9.43;5.63;;;13.10;99.90;;;;;;5114166;28;20032;-74
2023/04/22 06:40:42;;;;;;;12.48;6.78;;;13.20;99.90;;;;;;5114275;28;20028;-75
2023/04/22 06:43:08;;;;;;;10.48;6.45;;;13.10;99.90;;;;;;5114340;28;20229;-74
2023/04/22 06:45:33;;;;;;;12.45;6.78;;;13.10;99.90;;;;;;5114087;28;20085;-75
2023/04/22 06:47:59;;;;;;;13.27;6.47;;;13.10;99.90;;;;;;5114156;28;20027;-74
2023/04/22 06:50:25;;;;;;;11.70;6.28;;;13.10;99.90;;;;;;5095742;28;20027;-74
2023/04/22 06:52:50;;;;;;;10.63;6.13;;;13.20;99.90;;;;;;5113830;28;20142;-74
2023/04/22 06:55:16;;;;;;;11.00;6.07;;;13.10;99.90;;;;;;5114236;28;20027;-73
2023/04/22 06:57:42;;;;;;;11.10;6.40;;;13.00;99.90;;;;;;5114202;28;20027;-74
2023/04/22 07:00:08;;;;;;;11.07;6.15;;;13.10;99.90;;;;;;5114126;28;20436;-74
2023/04/22 07:02:34;;;;;;;9.45;5.70;;;13.10;99.90;;;;;;5113722;28;20400;-74
2023/04/22 07:04:59;;;;;;;13.48;6.10;;;13.10;99.90;;;;;;5114096;28;20108;-74
2023/04/22 07:07:28;;;;;;;10.32;6.43;;;13.10;99.90;;;;;;5113885;28;20500;-74
2023/04/22 07:09:54;;;;;;;11.35;6.28;;;13.00;99.90;;;;;;5095389;28;20039;-74
2023/04/22 07:12:19;;;;;;;11.32;6.38;;;13.10;99.90;;;;;;5113702;28;20056;-74
2023/04/22 07:14:47;;;;;;;9.40;6.20;;;13.10;99.90;;;;;;5113566;28;20104;-74
2023/04/22 07:17:13;;;;;;;11.20;5.97;;;13.10;99.90;;;;;;5113216;28;20027;-74
2023/04/22 07:19:39;;;;;;;11.63;6.40;;;13.10;99.90;;;;;;5113546;28;20024;-74
2023/04/22 07:22:05;;;;;;;11.70;6.38;;;13.20;99.90;;;;;;5113776;28;20403;-74
2023/04/22 07:24:31;;;;;;;12.35;6.68;;;13.20;99.90;;;;;;5113270;28;20110;-74
2023/04/22 07:26:57;;;;;;;11.73;6.55;;;13.20;99.90;;;;;;5095059;28;20523;-74
2023/04/22 07:29:23;;;;;;;12.43;6.45;;;13.20;99.90;;;;;;5113653;28;20032;-74
2023/04/22 07:31:49;;;;;;;12.23;6.95;;;13.20;99.90;;;;;;5113134;28;20455;-74
2023/04/22 07:34:16;;;;;;;11.82;6.75;;;13.30;99.90;;;;;;5113787;28;20043;-74
2023/04/22 07:36:42;;;;;;;13.52;6.93;;;13.30;99.90;;;;;;5113162;28;20024;-74
2023/04/22 07:39:08;;;;;;;12.00;6.47;;;13.50;99.90;;;;;;5113426;28;20130;-74
2023/04/22 07:41:34;;;;;;;13.65;6.72;;;13.60;99.90;;;;;;5113049;28;20024;-74
2023/04/22 07:44:01;;;;;;;11.13;6.43;;;13.60;99.90;;;;;;5113635;28;20089;-74
2023/04/22 07:46:27;;;;;;;12.27;6.70;;;13.70;99.90;;;;;;5113118;28;20068;-74
2023/04/22 07:48:53;;;;;;;12.02;6.65;;;13.70;99.90;;;;;;5095090;28;20110;-74
2023/04/22 07:51:19;;;;;;;12.40;7.43;;;13.80;99.90;;;;;;5112956;28;20392;-73
2023/04/22 07:53:45;;;;;;;10.27;6.57;;;13.80;99.90;;;;;;5112889;28;20039;-74
2023/04/22 07:56:10;;;;;;;14.50;6.82;;;13.90;99.90;;;;;;5113099;28;20020;-74
2023/04/22 07:58:36;;;;;;;12.48;6.50;;;13.90;99.90;;;;;;5112526;28;20024;-74
2023/04/22 08:01:01;;;;;;;15.05;6.90;;;13.90;99.90;;;;;;5112255;28;20027;-74
2023/04/22 08:03:27;;;;;;;13.18;7.15;;;14.00;99.90;;;;;;5112553;28;20062;-74
2023/04/22 08:05:55;;;;;;;11.93;6.90;;;14.10;99.90;;;;;;5112763;28;20027;-75
2023/04/22 08:08:21;;;;;;;12.40;6.80;;;14.10;99.90;;;;;;5112719;28;20040;-74
2023/04/22 08:10:46;;;;;;;15.73;7.10;;;14.20;99.90;;;;;;5112610;28;20088;-75
2023/04/22 08:13:12;;;;;;;16.08;7.13;;;14.30;99.90;;;;;;5094185;28;20051;-75
2023/04/22 08:15:38;;;;;;;12.18;6.80;;;14.30;99.90;;;;;;5111943;28;20034;-75
2023/04/22 08:18:05;;;;;;;13.68;7.00;;;14.40;99.90;;;;;;5112430;28;20058;-75
2023/04/22 08:20:30;;;;;;;15.48;6.47;;;14.50;99.90;;;;;;5113084;28;20506;-75
2023/04/22 08:22:59;;;;;;;13.52;6.45;;;14.50;99.90;;;;;;5112668;28;20118;-75
2023/04/22 08:25:25;;;;;;;13.63;6.25;;;14.50;99.90;;;;;;5112044;28;20028;-77
2023/04/22 08:27:51;;;;;;;17.42;6.78;;;14.50;99.90;;;;;;5112567;28;20039;-75
2023/04/22 08:30:17;;;;;;;14.45;6.55;;;14.60;99.90;;;;;;5112504;28;20036;-74
2023/04/22 08:32:42;;;;;;;12.48;6.13;;;14.60;99.90;;;;;;5111813;28;20476;-75
2023/04/22 08:35:08;;;;;;;13.15;6.57;;;14.60;99.90;;;;;;5111975;28;20022;-74
2023/04/22 08:37:34;;;;;;;12.68;6.35;;;14.60;99.90;;;;;;5112064;28;20088;-75
2023/04/22 08:40:00;;;;;;;12.15;5.68;;;14.60;99.90;;;;;;5112227;28;20027;-75
2023/04/22 08:42:26;;;;;;;10.00;5.78;;;14.60;99.90;;;;;;5112099;28;20031;-75
2023/04/22 08:44:53;;;;;;;10.55;4.85;;;14.50;99.90;;;;;;5093148;28;20024;-75
2023/04/22 08:47:20;;;;;;;11.68;5.07;;;14.60;99.90;;;;;;5111926;28;20456;-75
2023/04/22 08:49:46;;;;;;;10.68;4.68;;;14.70;99.90;;;;;;5111930;28;20099;-75
2023/04/22 08:52:14;;;;;;;12.35;4.75;;;14.80;99.90;;;;;;5112523;28;20042;-76
2023/04/22 08:54:42;;;;;;;12.35;4.50;;;14.80;99.90;;;;;;5111813;28;20492;-76
2023/04/22 08:57:09;;;;;;;12.63;4.65;;;14.80;99.90;;;;;;5112118;28;20092;-76
2023/04/22 08:59:37;;;;;;;13.27;5.20;;;14.80;99.90;;;;;;5111648;28;20032;-75
2023/04/22 09:02:04;;;;;;;12.57;4.50;;;14.90;99.90;;;;;;5111782;28;20072;-76
2023/04/22 09:04:30;;;;;;;8.25;3.92;;;15.00;99.90;;;;;;5111792;28;20060;-76
2023/04/22 09:06:57;;;;;;;11.25;4.55;;;14.90;99.90;;;;;;5111837;28;20109;-76
2023/04/22 09:09:24;;;;;;;14.48;4.70;;;15.00;99.90;;;;;;5093696;28;20043;-76
2023/04/22 09:11:49;;;;;;;13.98;4.63;;;15.00;99.90;;;;;;5111671;28;20035;-75
2023/04/22 09:14:16;;;;;;;12.02;4.47;;;15.00;99.90;;;;;;5111320;28;20111;-76
2023/04/22 09:16:47;;;;;;;12.93;4.30;;;15.00;99.90;;;;;;5111638;28;20012;-76
2023/04/22 09:19:13;;;;;;;15.25;4.60;;;14.90;99.90;;;;;;5093284;28;20088;-76
2023/04/22 09:21:40;;;;;;;8.90;4.10;;;14.90;99.90;;;;;;5111960;28;20015;-76
2023/04/22 09:24:07;;;;;;;10.30;4.50;;;14.90;99.90;;;;;;5111648;28;20054;-76
2023/04/22 09:26:33;;;;;;;13.52;4.28;;;14.90;99.90;;;;;;5111198;28;20047;-76
2023/04/22 09:28:59;;;;;;;11.15;4.03;;;14.90;99.90;;;;;;5110820;28;20502;-76
2023/04/22 09:31:27;;;;;;;13.02;4.80;;;15.00;99.90;;;;;;5111420;28;20034;-75
2023/04/22 09:34:00;;;;;;;8.43;3.80;;;15.10;99.90;;;;;;5111877;28;20408;-75
2023/04/22 09:36:29;;;;;;;8.07;4.20;;;15.10;99.90;;;;;;5112160;28;20023;-75
2023/04/22 09:38:56;;;;;;;8.63;3.95;;;15.10;99.90;;;;;;5111262;28;20424;-76
2023/04/22 09:41:29;;;;;;;11.07;4.30;;;15.20;99.90;;;;;;5111285;28;20488;-76
2023/04/22 09:43:57;;;;;;;9.77;3.90;;;15.20;99.90;;;;;;5111567;28;20569;-76
2023/04/22 09:46:24;;;;;;;11.07;3.70;;;15.30;99.90;;;;;;5115095;28;20043;-76
2023/04/22 09:48:50;;;;;;;8.20;3.63;;;15.40;99.90;;;;;;5115641;28;20039;-76
2023/04/22 09:51:17;;;;;;;13.27;3.55;;;15.40;99.90;;;;;;5115755;28;20027;-76
2023/04/22 09:53:43;;;;;;;8.88;3.50;;;15.40;99.90;;;;;;5114940;28;20093;-76
2023/04/22 09:56:10;;;;;;;6.60;3.72;;;15.50;99.90;;;;;;5115246;28;20024;-77
2023/04/22 09:58:39;;;;;;;10.40;4.00;;;15.50;99.90;;;;;;5115504;28;20027;-76
2023/04/22 10:01:05;;;;;;;10.25;4.15;;;15.50;99.90;;;;;;5115253;28;20045;-77
2023/04/22 10:03:31;;;;;;;9.68;3.28;;;15.50;99.90;;;;;;5115310;28;20518;-77
2023/04/22 10:05:57;;;;;;;9.70;3.95;;;15.60;99.90;;;;;;5115402;28;20028;-77
2023/04/22 10:08:23;;;;;;;7.32;3.60;;;15.90;99.90;;;;;;5114701;28;20168;-77
2023/04/22 10:10:49;;;;;;;7.60;2.78;;;15.80;99.90;;;;;;5114660;28;20114;-77
2023/04/22 10:13:15;;;;;;;7.50;2.95;;;15.90;99.90;;;;;;5115033;28;20058;-77
2023/04/22 10:15:48;;;;;;;8.40;3.10;;;15.90;99.90;;;;;;5115267;28;20028;-77
2023/04/22 10:18:19;;;;;;;7.97;2.70;;;15.90;99.90;;;;;;5114841;28;20093;-77
2023/04/22 10:20:46;;;;;;;6.03;2.70;;;15.80;99.90;;;;;;5115331;28;20530;-77
2023/04/22 10:23:14;;;;;;;5.30;2.90;;;15.90;99.90;;;;;;5114549;28;20035;-77
2023/04/22 10:25:41;;;;;;;7.85;3.00;;;16.00;99.90;;;;;;5114701;28;20102;-77
2023/04/22 10:28:10;;;;;;;6.80;3.25;;;16.10;99.90;;;;;;5114509;28;20039;-77
2023/04/22 10:30:38;;;;;;;5.13;2.67;;;16.10;99.90;;;;;;5115243;28;20103;-77
2023/04/22 10:33:30;;;;;;;8.15;2.92;;;16.10;99.90;;;;;;5114685;28;20038;-77
2023/04/22 10:36:18;;;;;;;4.60;2.40;;;16.20;99.90;;;;;;5114404;28;20437;-76
2023/04/22 10:38:49;;;;;;;6.57;2.72;;;16.20;99.90;;;;;;5114072;28;20020;-77
2023/04/22 10:41:16;;;;;;;5.22;2.70;;;16.20;99.90;;;;;;5114136;28;20032;-80
2023/04/22 10:43:46;;;;;;;4.90;2.45;;;16.20;99.90;;;;;;5114964;28;20028;-78
2023/04/22 10:46:31;;;;;;;5.50;2.53;;;16.20;99.90;;;;;;5114513;28;20023;-77
2023/04/22 10:49:07;;;;;;;6.15;2.30;;;16.10;99.90;;;;;;5095770;28;20031;-76
2023/04/22 10:51:50;;;;;;;6.15;2.38;;;16.10;99.90;;;;;;5114612;28;20015;-78
2023/04/22 10:54:25;;;;;;;5.22;2.30;;;16.40;99.90;;;;;;5113661;28;20058;-78
2023/04/22 10:57:04;;;;;;;7.20;2.55;;;16.50;99.90;;;;;;5113939;28;20061;-78
2023/04/22 10:59:31;;;;;;;5.13;2.45;;;16.80;99.90;;;;;;5115063;28;20047;-77
2023/04/22 11:02:05;;;;;;;4.03;2.25;;;17.20;99.90;;;;;;5114580;28;20028;-78
2023/04/22 11:04:32;;;;;;;3.63;2.80;;;17.30;99.90;;;;;;5114220;28;20394;-78
2023/04/22 11:07:16;;;;;;;6.30;2.40;;;17.30;99.90;;;;;;5113859;28;20055;-77
2023/04/22 11:10:28;;;;;;;6.10;2.28;;;17.10;99.90;;;;;;5113729;28;20040;-78
2023/04/22 11:12:55;;;;;;;5.25;2.47;;;17.20;99.90;;;;;;5107812;28;20130;-78
2023/04/22 11:15:21;;;;;;;5.93;2.50;;;17.20;99.90;;;;;;5113824;28;20540;-77
2023/04/22 11:17:50;;;;;;;4.57;2.00;;;17.10;99.90;;;;;;5095202;28;20114;-77
2023/04/22 11:20:17;;;;;;;4.93;2.30;;;17.00;99.90;;;;;;5114079;28;20027;-78
2023/04/22 11:22:54;;;;;;;3.45;2.13;;;17.10;99.90;;;;;;5113354;28;20035;-78
2023/04/22 11:25:21;;;;;;;4.40;2.47;;;17.40;99.90;;;;;;5114133;28;20502;-78
2023/04/22 11:27:47;;;;;;;3.75;2.13;;;17.30;99.90;;;;;;5113314;28;20086;-78
2023/04/22 11:30:16;;;;;;;5.47;2.20;;;17.30;99.90;;;;;;5113708;28;20065;-78
2023/04/22 11:32:45;;;;;;;4.30;2.00;;;17.20;99.90;;;;;;5113314;28;20016;-78
2023/04/22 11:35:32;;;;;;;4.20;2.00;;;17.30;99.90;;;;;;5113056;28;20106;-78
2023/04/22 11:38:01;;;;;;;4.65;2.28;;;17.20;99.90;;;;;;5112337;28;20049;-77
2023/04/22 11:40:28;;;;;;;4.40;2.30;;;17.30;99.90;;;;;;5113495;28;20518;-77
2023/04/22 11:42:55;;;;;;;3.03;2.10;;;17.30;99.90;;;;;;5113169;28;20027;-77
2023/04/22 11:45:22;;;;;;;5.97;2.20;;;17.30;99.90;;;;;;5113067;28;20035;-77
2023/04/22 11:47:49;;;;;;;5.63;2.33;;;17.30;99.90;;;;;;5113012;28;20107;-78
2023/04/22 11:50:16;;;;;;;3.97;2.25;;;17.30;99.90;;;;;;5112701;28;20019;-78
2023/04/22 11:52:53;;;;;;;5.18;2.00;;;17.50;99.90;;;;;;5112627;28;20496;-78
2023/04/22 11:55:26;;;;;;;4.00;2.28;;;17.60;99.90;;;;;;5114219;28;20047;-78
2023/04/22 11:58:10;;;;;;;3.30;2.17;;;17.80;99.90;;;;;;5114291;28;20059;-79
2023/04/22 12:00:41;;;;;;;3.75;1.98;;;17.70;99.90;;;;;;5114722;28;20023;-78
2023/04/22 12:03:14;;;;;;;3.00;2.10;;;17.50;99.90;;;;;;5112926;28;20138;-78
2023/04/22 12:05:40;;;;;;;3.70;2.40;;;17.50;99.90;;;;;;5113303;28;20034;-78
2023/04/22 12:08:17;;;;;;;5.35;2.25;;;17.70;99.90;;;;;;5112373;28;20035;-79
2023/04/22 12:10:54;;;;;;;3.78;1.98;;;17.70;99.90;;;;;;5114215;28;20106;-78
2023/04/22 12:13:31;;;;;;;4.75;2.22;;;17.50;99.90;;;;;;5114482;28;20043;-78
2023/04/22 12:16:08;;;;;;;3.78;2.13;;;17.50;99.90;;;;;;5114803;28;20023;-78
2023/04/22 12:18:35;;;;;;;4.53;1.95;;;17.40;99.90;;;;;;5115027;28;20502;-78
2023/04/22 12:21:07;;;;;;;4.13;2.28;;;17.50;99.90;;;;;;5114365;28;20015;-78
2023/04/22 12:23:44;;;;;;;4.68;2.22;;;17.50;99.90;;;;;;5114437;28;20027;-78
2023/04/22 12:26:15;;;;;;;3.92;2.10;;;17.50;99.90;;;;;;5114957;28;20052;-78
2023/04/22 12:28:41;;;;;;;5.68;2.47;;;17.50;99.90;;;;;;5095449;28;20149;-78
2023/04/22 12:31:08;;;;;;;3.65;2.00;;;17.70;99.90;;;;;;5113442;28;20031;-77
2023/04/22 12:33:35;;;;;;;4.18;2.17;;;17.80;99.90;;;;;;5112601;28;20042;-77
2023/04/22 12:36:00;;;;;;;3.95;2.17;;;17.90;99.90;;;;;;5112164;28;20057;-77
2023/04/22 12:38:26;;;;;;;4.70;2.13;;;17.90;99.90;;;;;;5112685;28;20098;-78
2023/04/22 12:40:52;;;;;;;6.20;2.40;;;17.90;99.90;;;;;;5112460;28;20094;-77